KGLD/GLD METAR and TAF weather

Enter ICAO airport designator
Station Type Date Time Source
KGLD METAR 2022/05/25 01:40 UTC NOAA

KGLD 250140Z AUTO 03010KT 10SM -RA FEW013 BKN017 OVC038 07/06 A2999 RMK AO2 RAE0054B34 P0000 T00720061


Station Type Date Time Source
KGLD Decoded METAR 2022/05/25 01:40 UTC NOAA

GOODLAND RENNER FIELD, KS, United States (KGLD) 39-22N 101-42W 1114M
May 24, 2022 - 09:40 PM EDT / 2022.05.25 0140 UTC
Wind: from the NNE (030 degrees) at 12 MPH (10 KT):0
Visibility: 10 mile(s):0
Sky conditions: overcast
Weather: light rain
Precipitation last hour: A trace
Temperature: 45.0 F (7.2 C)
Dew Point: 43.0 F (6.1 C)
Relative Humidity: 92%
Pressure (altimeter): 29.99 in. Hg (1015 hPa)
ob: KGLD 250140Z AUTO 03010KT 10SM -RA FEW013 BKN017 OVC038 07/06 A2999 RMK AO2 RAE0054B34 P0000 T00720061
cycle: 1

Station Type Date Time Source
KGLD TAF 2022/05/24 18:22 UTC NOAA

TAF KGLD 241720Z 2418/2518 02011KT 3SM -RA BR BKN010
FM250000 02011KT 6SM -SHRA BKN015
FM250600 34011KT P6SM BKN015
FM251400 35020G30KT P6SM BKN035

Example: see airport list